createdAt,value
2023-02-25T00:01:41.748Z,16.07
2023-02-25T00:04:12.036Z,21.07
2023-02-25T00:06:41.058Z,15.37
2023-02-25T00:09:11.240Z,13.83
2023-02-25T00:11:39.158Z,13.83
2023-02-25T00:14:06.920Z,15.60
2023-02-25T00:16:34.599Z,15.53
2023-02-25T00:19:03.778Z,12.77
2023-02-25T00:21:31.773Z,13.27
2023-02-25T00:24:15.244Z,16.10
2023-02-25T00:26:43.885Z,16.33
2023-02-25T00:29:11.528Z,17.40
2023-02-25T00:31:39.297Z,21.27
2023-02-25T00:34:07.038Z,17.60
2023-02-25T00:36:34.682Z,11.00
2023-02-25T00:39:03.761Z,14.80
2023-02-25T00:41:31.916Z,15.20
2023-02-25T00:44:02.179Z,13.30
2023-02-25T00:46:31.146Z,18.40
2023-02-25T00:48:59.476Z,10.43
2023-02-25T00:51:29.249Z,17.97
2023-02-25T00:53:57.646Z,12.67
2023-02-25T00:56:27.639Z,11.83
2023-02-25T00:58:55.412Z,11.07
2023-02-25T01:01:26.534Z,10.77
2023-02-25T01:03:56.413Z,11.47
2023-02-25T01:06:25.219Z,11.63
2023-02-25T01:08:53.190Z,10.00
2023-02-25T01:11:29.108Z,12.40
2023-02-25T01:13:59.876Z,11.70
2023-02-25T01:16:29.367Z,13.07
2023-02-25T01:18:59.718Z,9.20
2023-02-25T01:21:29.966Z,10.83
2023-02-25T01:24:00.979Z,16.43
2023-02-25T01:26:30.304Z,10.83
2023-02-25T01:28:59.658Z,10.43
2023-02-25T01:31:29.350Z,8.57
2023-02-25T01:33:58.784Z,12.00
2023-02-25T01:36:26.613Z,10.03
2023-02-25T01:38:54.261Z,13.77
2023-02-25T01:41:21.900Z,8.30
2023-02-25T01:44:08.277Z,6.10
2023-02-25T01:46:36.076Z,15.83
2023-02-25T01:49:09.541Z,17.10
2023-02-25T01:51:37.988Z,13.33
2023-02-25T01:54:07.176Z,15.43
2023-02-25T01:56:39.671Z,16.50
2023-02-25T01:59:09.271Z,9.17
2023-02-25T02:01:39.640Z,14.60
2023-02-25T02:04:09.585Z,9.87
2023-02-25T02:06:39.421Z,11.57
2023-02-25T02:09:12.074Z,15.77
2023-02-25T02:11:39.851Z,13.17
2023-02-25T02:14:11.616Z,10.77
2023-02-25T02:16:56.710Z,10.83
2023-02-25T02:19:37.441Z,15.10
2023-02-25T02:22:11.439Z,10.53
2023-02-25T02:25:21.331Z,13.87
2023-02-25T02:28:27.724Z,14.73
2023-02-25T02:31:17.009Z,16.90
2023-02-25T02:33:53.076Z,13.30
2023-02-25T02:36:30.652Z,11.20
2023-02-25T02:39:09.176Z,12.90
2023-02-25T02:41:38.513Z,16.20
2023-02-25T02:44:14.568Z,10.43
2023-02-25T02:46:49.662Z,12.27
2023-02-25T02:49:21.511Z,10.23
2023-02-25T02:51:56.789Z,9.50
2023-02-25T02:54:28.056Z,11.70
2023-02-25T02:56:58.297Z,7.20
2023-02-25T02:59:29.142Z,10.07
2023-02-25T03:02:03.763Z,13.37
2023-02-25T03:04:35.066Z,8.50
2023-02-25T03:07:05.199Z,10.27
2023-02-25T03:09:36.706Z,7.53
2023-02-25T03:12:04.543Z,8.17
2023-02-25T03:14:32.312Z,16.20
2023-02-25T03:17:06.276Z,9.40
2023-02-25T03:19:40.444Z,4.93
2023-02-25T03:22:12.073Z,7.60
2023-02-25T03:24:45.231Z,7.67
2023-02-25T03:27:27.887Z,5.23
2023-02-25T03:30:04.442Z,4.13
2023-02-25T03:32:37.523Z,12.90
2023-02-25T03:35:07.459Z,8.63
2023-02-25T03:37:38.582Z,4.70
2023-02-25T03:40:12.171Z,5.97
2023-02-25T03:42:45.770Z,7.80
2023-02-25T03:45:14.855Z,7.30
2023-02-25T03:47:44.516Z,9.77
2023-02-25T03:50:16.613Z,11.87
2023-02-25T03:52:44.274Z,9.43
2023-02-25T03:55:13.070Z,5.70
2023-02-25T03:57:42.674Z,4.50
2023-02-25T04:00:19.039Z,11.93
2023-02-25T04:02:48.898Z,6.43
2023-02-25T04:05:18.416Z,5.53
2023-02-25T04:07:46.462Z,4.40
2023-02-25T04:10:16.530Z,4.50
2023-02-25T04:12:44.257Z,5.07
2023-02-25T04:15:14.010Z,5.30
2023-02-25T04:17:42.081Z,5.80
2023-02-25T04:20:12.546Z,3.90
2023-02-25T04:22:40.242Z,5.87
2023-02-25T04:25:08.720Z,8.73
2023-02-25T04:27:36.395Z,5.97
2023-02-25T04:30:04.902Z,4.57
2023-02-25T04:32:32.761Z,5.87
2023-02-25T04:35:03.128Z,5.33
2023-02-25T04:37:32.213Z,3.03
2023-02-25T04:39:59.995Z,5.97
2023-02-25T04:42:27.677Z,3.93
2023-02-25T04:44:56.100Z,4.73
2023-02-25T04:47:23.798Z,3.87
2023-02-25T04:49:51.435Z,7.10
2023-02-25T04:52:19.197Z,6.20
2023-02-25T04:54:48.385Z,5.43
2023-02-25T04:57:16.106Z,6.80
2023-02-25T04:59:44.039Z,4.07
2023-02-25T05:02:11.768Z,3.63
2023-02-25T05:04:40.444Z,3.93
2023-02-25T05:07:09.046Z,2.90
2023-02-25T05:09:36.908Z,3.93
2023-02-25T05:12:06.204Z,2.47
2023-02-25T05:14:34.898Z,4.27
2023-02-25T05:17:02.597Z,8.43
2023-02-25T05:19:30.321Z,5.27
2023-02-25T05:21:57.986Z,2.43
2023-02-25T05:24:25.649Z,6.77
2023-02-25T05:26:53.778Z,5.27
2023-02-25T05:29:22.796Z,7.40
2023-02-25T05:31:51.742Z,6.73
2023-02-25T05:34:19.592Z,5.07
2023-02-25T05:36:47.584Z,7.27
2023-02-25T05:39:15.592Z,5.80
2023-02-25T05:41:43.277Z,6.13
2023-02-25T05:44:11.510Z,8.90
2023-02-25T05:46:40.540Z,3.90
2023-02-25T05:49:08.257Z,4.33
2023-02-25T05:51:35.923Z,4.70
2023-02-25T05:54:03.830Z,2.90
2023-02-25T05:56:32.387Z,6.20
2023-02-25T05:59:00.639Z,3.43
2023-02-25T06:01:29.479Z,3.60
2023-02-25T06:03:59.325Z,2.33
2023-02-25T06:06:28.462Z,5.03
2023-02-25T06:08:56.276Z,6.73
2023-02-25T06:11:25.812Z,3.77
2023-02-25T06:13:55.063Z,4.93
2023-02-25T06:16:25.853Z,5.60
2023-02-25T06:18:53.852Z,3.63
2023-02-25T06:21:23.009Z,2.43
2023-02-25T06:23:51.209Z,4.60
2023-02-25T06:26:19.628Z,3.70
2023-02-25T06:28:47.376Z,1.73
2023-02-25T06:31:17.173Z,4.47
2023-02-25T06:33:45.424Z,3.23
2023-02-25T06:36:14.162Z,1.93
2023-02-25T06:38:45.987Z,2.57
2023-02-25T06:41:16.547Z,3.70
2023-02-25T06:43:44.787Z,2.73
2023-02-25T06:46:14.309Z,1.50
2023-02-25T06:48:42.087Z,3.87
2023-02-25T06:51:11.490Z,2.70
2023-02-25T06:53:39.786Z,3.07
2023-02-25T06:56:09.965Z,3.27
2023-02-25T06:58:38.460Z,3.57
2023-02-25T07:01:07.814Z,1.47
2023-02-25T07:03:35.727Z,1.00
2023-02-25T07:06:03.426Z,0.70
2023-02-25T07:08:31.114Z,3.03
2023-02-25T07:11:14.825Z,2.20
2023-02-25T07:13:43.777Z,3.87
2023-02-25T07:16:12.007Z,1.10
2023-02-25T07:18:39.806Z,2.60
2023-02-25T07:21:07.982Z,2.53
2023-02-25T07:23:35.868Z,1.17
2023-02-25T07:26:04.692Z,2.90
2023-02-25T07:28:34.117Z,2.57
2023-02-25T07:31:02.161Z,3.47
2023-02-25T07:33:30.408Z,3.07
2023-02-25T07:35:58.797Z,4.10
2023-02-25T07:38:26.515Z,3.63
2023-02-25T07:40:54.361Z,3.17
2023-02-25T07:43:22.028Z,1.63
2023-02-25T07:45:51.697Z,1.30
2023-02-25T07:48:19.500Z,1.67
2023-02-25T07:50:47.155Z,3.30
2023-02-25T07:53:14.832Z,2.43
2023-02-25T07:55:44.645Z,2.53
2023-02-25T07:58:12.350Z,1.90
2023-02-25T08:00:41.750Z,4.20
2023-02-25T08:03:10.761Z,5.17
2023-02-25T08:05:38.686Z,1.80
2023-02-25T08:08:06.985Z,2.73
2023-02-25T08:10:34.919Z,2.33
2023-02-25T08:13:02.950Z,3.13
2023-02-25T08:15:30.617Z,3.63
2023-02-25T08:17:58.767Z,4.07
2023-02-25T08:20:27.940Z,1.03
2023-02-25T08:22:57.032Z,2.00
2023-02-25T08:25:24.662Z,1.80
2023-02-25T08:27:53.109Z,0.87
2023-02-25T08:30:21.794Z,1.17
2023-02-25T08:32:49.650Z,1.70
2023-02-25T08:35:17.453Z,3.07
2023-02-25T08:37:46.566Z,2.30
2023-02-25T08:40:14.907Z,1.33
2023-02-25T08:42:42.545Z,1.53
2023-02-25T08:45:11.221Z,1.60
2023-02-25T08:47:39.319Z,3.07
2023-02-25T08:50:08.212Z,3.20
2023-02-25T08:52:35.912Z,1.60
2023-02-25T08:55:05.737Z,2.67
2023-02-25T08:57:34.182Z,0.67
2023-02-25T09:00:02.651Z,2.17
2023-02-25T09:02:31.416Z,2.57
2023-02-25T09:04:59.063Z,1.23
2023-02-25T09:07:27.073Z,1.10
2023-02-25T09:09:54.751Z,1.17
2023-02-25T09:12:24.884Z,3.03
2023-02-25T09:14:52.658Z,1.20
2023-02-25T09:17:20.320Z,1.50
2023-02-25T09:19:48.003Z,2.90
2023-02-25T09:22:15.670Z,4.07
2023-02-25T09:24:43.372Z,2.10
2023-02-25T09:27:11.442Z,1.27
2023-02-25T09:29:41.429Z,2.93
2023-02-25T09:32:17.362Z,0.80
2023-02-25T09:34:45.073Z,1.57
2023-02-25T09:37:14.346Z,1.37
2023-02-25T09:39:43.028Z,1.10
2023-02-25T09:42:14.841Z,1.23
2023-02-25T09:44:46.872Z,2.67
2023-02-25T09:47:19.388Z,2.00
2023-02-25T09:49:53.010Z,4.07
2023-02-25T09:52:28.673Z,1.57
2023-02-25T09:55:00.696Z,1.67
2023-02-25T09:57:29.763Z,1.00
2023-02-25T10:00:01.756Z,0.47
2023-02-25T10:02:36.866Z,1.67
2023-02-25T10:05:22.930Z,0.77
2023-02-25T10:07:58.544Z,2.10
2023-02-25T10:10:34.748Z,1.40
2023-02-25T10:13:13.560Z,3.03
2023-02-25T10:15:56.247Z,2.00
2023-02-25T10:18:49.752Z,3.50
2023-02-25T10:21:30.116Z,2.07
2023-02-25T10:24:23.411Z,3.73
2023-02-25T10:26:55.764Z,1.03
2023-02-25T10:29:29.245Z,1.97
2023-02-25T10:32:01.260Z,4.23
2023-02-25T10:34:32.755Z,1.07
2023-02-25T10:37:01.472Z,2.87
2023-02-25T10:39:31.199Z,2.97
2023-02-25T10:41:59.349Z,1.17
2023-02-25T10:44:27.016Z,2.10
2023-02-25T10:46:59.902Z,4.40
2023-02-25T10:49:30.137Z,3.83
2023-02-25T10:52:00.249Z,2.33
2023-02-25T10:54:28.677Z,4.93
2023-02-25T10:56:58.725Z,1.53
2023-02-25T10:59:31.367Z,1.97
2023-02-25T11:02:02.008Z,1.30
2023-02-25T11:04:34.327Z,2.53
2023-02-25T11:07:02.125Z,1.47
2023-02-25T11:09:35.344Z,1.33
2023-02-25T11:12:12.385Z,2.60
2023-02-25T11:14:40.552Z,1.27
2023-02-25T11:17:15.771Z,0.83
2023-02-25T11:19:46.847Z,1.00
2023-02-25T11:22:19.913Z,2.60
2023-02-25T11:24:59.450Z,1.60
2023-02-25T11:27:36.639Z,0.60
2023-02-25T11:30:09.155Z,1.33
2023-02-25T11:32:42.757Z,3.03
2023-02-25T11:35:18.285Z,0.83
2023-02-25T11:37:48.019Z,2.53
2023-02-25T11:40:25.491Z,3.10
2023-02-25T11:43:11.065Z,2.43
2023-02-25T11:45:41.289Z,2.30
2023-02-25T11:48:19.562Z,1.63
2023-02-25T11:50:52.550Z,2.87
2023-02-25T11:53:33.707Z,2.90
2023-02-25T11:56:11.506Z,1.80
2023-02-25T11:58:51.155Z,1.23
2023-02-25T12:01:25.859Z,3.43
2023-02-25T12:04:11.115Z,3.53
2023-02-25T12:07:08.331Z,2.00
2023-02-25T12:10:11.864Z,2.20
2023-02-25T12:13:17.065Z,1.83
2023-02-25T12:16:08.214Z,1.53
2023-02-25T12:19:12.361Z,2.13
2023-02-25T12:22:15.247Z,0.80
2023-02-25T12:25:03.745Z,1.77
2023-02-25T12:28:00.710Z,2.40
2023-02-25T12:31:05.245Z,2.10
2023-02-25T12:33:48.243Z,1.73
2023-02-25T12:36:36.289Z,1.47
2023-02-25T12:39:31.559Z,1.77
2023-02-25T12:42:14.140Z,0.90
2023-02-25T12:45:12.114Z,6.53
2023-02-25T12:47:53.797Z,2.93
2023-02-25T12:50:52.653Z,1.97
2023-02-25T12:53:35.806Z,2.10
2023-02-25T12:56:16.756Z,1.20
2023-02-25T12:58:53.284Z,4.30
2023-02-25T13:01:34.615Z,5.23
2023-02-25T13:04:29.415Z,2.30
2023-02-25T13:07:25.719Z,1.47
2023-02-25T13:10:06.540Z,2.37
2023-02-25T13:12:49.141Z,1.73
2023-02-25T13:15:21.702Z,2.00
2023-02-25T13:18:05.781Z,4.17
2023-02-25T13:20:59.252Z,2.03
2023-02-25T13:23:44.577Z,2.83
2023-02-25T13:26:30.124Z,2.27
2023-02-25T13:29:16.479Z,1.43
2023-02-25T13:31:52.246Z,1.80
2023-02-25T13:34:32.013Z,1.27
2023-02-25T13:37:19.407Z,1.77
2023-02-25T13:40:27.271Z,1.17
2023-02-25T13:43:01.123Z,2.20
2023-02-25T13:45:50.606Z,5.03
2023-02-25T13:48:43.627Z,2.83
2023-02-25T13:51:25.830Z,3.23
2023-02-25T13:54:20.975Z,1.97
2023-02-25T13:57:11.286Z,6.20
2023-02-25T14:00:01.998Z,2.40
2023-02-25T14:02:50.647Z,2.70
2023-02-25T14:05:45.256Z,1.27
2023-02-25T14:08:38.709Z,2.83
2023-02-25T14:11:26.840Z,5.00
2023-02-25T14:14:07.571Z,5.33
2023-02-25T14:16:52.002Z,2.83
2023-02-25T14:19:39.600Z,8.07
2023-02-25T14:22:25.421Z,3.40
2023-02-25T14:25:03.428Z,3.17
2023-02-25T14:27:38.717Z,3.40
2023-02-25T14:30:24.312Z,3.13
2023-02-25T14:33:05.099Z,6.30
2023-02-25T14:36:05.096Z,4.17
2023-02-25T14:38:46.691Z,3.60
2023-02-25T14:41:31.010Z,4.77
2023-02-25T14:44:02.348Z,5.17
2023-02-25T14:46:34.978Z,3.33
2023-02-25T14:49:10.456Z,2.23
2023-02-25T14:52:02.208Z,2.50
2023-02-25T14:55:18.062Z,4.20
2023-02-25T14:58:31.010Z,2.53
2023-02-25T15:01:18.588Z,3.67
2023-02-25T15:04:31.336Z,2.47
2023-02-25T15:07:16.121Z,5.93
2023-02-25T15:10:18.271Z,2.13
2023-02-25T15:13:00.925Z,3.33
2023-02-25T15:16:04.755Z,3.60
2023-02-25T15:19:01.858Z,6.27
2023-02-25T15:21:42.431Z,2.10
2023-02-25T15:24:12.346Z,2.60
2023-02-25T15:26:46.070Z,1.27
2023-02-25T15:29:47.064Z,2.70
2023-02-25T15:32:24.570Z,6.17
2023-02-25T15:34:58.138Z,2.10
2023-02-25T15:37:33.727Z,4.90
2023-02-25T15:40:44.899Z,2.63
2023-02-25T15:43:51.911Z,5.13
2023-02-25T15:46:47.147Z,3.10
2023-02-25T15:49:23.568Z,5.30
2023-02-25T15:51:54.217Z,6.53
2023-02-25T15:54:51.071Z,3.37
2023-02-25T15:57:37.236Z,5.90
2023-02-25T16:00:25.976Z,4.90
2023-02-25T16:02:58.514Z,3.37
2023-02-25T16:05:34.329Z,4.70
2023-02-25T16:08:19.582Z,3.77
2023-02-25T16:10:52.189Z,3.03
2023-02-25T16:13:26.989Z,3.43
2023-02-25T16:15:57.571Z,6.73
2023-02-25T16:18:33.469Z,5.33
2023-02-25T16:21:05.986Z,2.97
2023-02-25T16:23:35.008Z,3.20
2023-02-25T16:26:14.467Z,1.80
2023-02-25T16:28:51.387Z,5.20
2023-02-25T16:31:23.111Z,5.07
2023-02-25T16:33:58.052Z,4.13
2023-02-25T16:36:35.112Z,6.20
2023-02-25T16:39:05.017Z,3.87
2023-02-25T16:41:38.479Z,4.80
2023-02-25T16:44:07.137Z,5.83
2023-02-25T16:46:39.006Z,5.60
2023-02-25T16:49:11.038Z,4.33
2023-02-25T16:51:41.281Z,6.13
2023-02-25T16:54:14.011Z,2.20
2023-02-25T16:56:46.319Z,5.27
2023-02-25T16:59:18.802Z,3.20
2023-02-25T17:01:55.124Z,2.87
2023-02-25T17:04:25.752Z,5.63
2023-02-25T17:07:09.783Z,4.30
2023-02-25T17:09:44.511Z,4.73
2023-02-25T17:12:18.814Z,3.93
2023-02-25T17:14:49.805Z,7.47
2023-02-25T17:17:22.184Z,3.77
2023-02-25T17:19:52.743Z,3.60
2023-02-25T17:22:22.412Z,6.47
2023-02-25T17:24:51.962Z,4.60
2023-02-25T17:27:22.371Z,4.93
2023-02-25T17:29:50.489Z,5.10
2023-02-25T17:32:24.194Z,4.60
2023-02-25T17:34:55.279Z,4.87
2023-02-25T17:37:25.645Z,3.23
2023-02-25T17:39:54.265Z,2.37
2023-02-25T17:42:41.294Z,4.63
2023-02-25T17:45:44.787Z,4.47
2023-02-25T17:48:17.154Z,12.40
2023-02-25T17:50:45.474Z,4.80
2023-02-25T17:53:29.963Z,6.23
2023-02-25T17:55:58.742Z,5.10
2023-02-25T17:58:27.991Z,7.20
2023-02-25T18:01:02.655Z,4.90
2023-02-25T18:03:30.845Z,1.90
2023-02-25T18:06:02.411Z,5.67
2023-02-25T18:08:30.738Z,2.17
2023-02-25T18:11:03.728Z,3.27
2023-02-25T18:13:36.211Z,5.00
2023-02-25T18:16:39.328Z,3.30
2023-02-25T18:19:22.932Z,3.60
2023-02-25T18:21:50.765Z,2.57
2023-02-25T18:24:27.188Z,3.97
2023-02-25T18:27:03.299Z,3.03
2023-02-25T18:29:33.145Z,5.13
2023-02-25T18:32:01.007Z,2.23
2023-02-25T18:34:28.745Z,5.93
2023-02-25T18:36:56.405Z,2.03
2023-02-25T18:39:26.801Z,4.57
2023-02-25T18:41:54.416Z,2.40
2023-02-25T18:44:22.210Z,1.97
2023-02-25T18:46:51.178Z,2.83
2023-02-25T18:49:19.599Z,2.23
2023-02-25T18:51:49.548Z,2.37
2023-02-25T18:54:18.081Z,2.63
2023-02-25T18:56:45.888Z,4.07
2023-02-25T18:59:13.537Z,3.70
2023-02-25T19:01:41.440Z,3.73
2023-02-25T19:04:15.936Z,3.27
2023-02-25T19:06:43.643Z,4.23
2023-02-25T19:09:11.453Z,1.60
2023-02-25T19:11:39.189Z,3.47
2023-02-25T19:14:08.253Z,3.73
2023-02-25T19:16:35.977Z,2.60
2023-02-25T19:19:03.632Z,5.43
2023-02-25T19:21:32.625Z,3.23
2023-02-25T19:24:00.283Z,3.30
2023-02-25T19:26:28.157Z,3.03
2023-02-25T19:28:55.888Z,5.90
2023-02-25T19:31:23.522Z,4.37
2023-02-25T19:33:51.199Z,4.93
2023-02-25T19:36:18.821Z,4.77
2023-02-25T19:38:47.849Z,4.83
2023-02-25T19:41:15.526Z,3.13
2023-02-25T19:43:43.169Z,5.70
2023-02-25T19:46:11.214Z,4.27
2023-02-25T19:48:38.973Z,4.80
2023-02-25T19:51:07.818Z,2.57
2023-02-25T19:53:36.117Z,5.73
2023-02-25T19:56:07.310Z,5.40
2023-02-25T19:58:34.998Z,9.10
2023-02-25T20:01:04.662Z,2.90
2023-02-25T20:03:32.662Z,3.93
2023-02-25T20:06:06.790Z,4.80
2023-02-25T20:08:35.644Z,2.57
2023-02-25T20:11:08.235Z,4.87
2023-02-25T20:13:38.136Z,4.13
2023-02-25T20:16:06.630Z,3.53
2023-02-25T20:18:34.269Z,2.67
2023-02-25T20:21:02.035Z,5.33
2023-02-25T20:23:30.098Z,3.10
2023-02-25T20:26:06.747Z,4.83
2023-02-25T20:28:34.899Z,7.50
2023-02-25T20:31:06.590Z,4.83
2023-02-25T20:33:35.150Z,4.50
2023-02-25T20:36:14.747Z,7.23
2023-02-25T20:38:51.896Z,3.70
2023-02-25T20:41:21.395Z,4.33
2023-02-25T20:43:49.215Z,6.20
2023-02-25T20:46:24.277Z,6.13
2023-02-25T20:48:52.781Z,3.73
2023-02-25T20:51:21.190Z,2.07
2023-02-25T20:53:49.384Z,4.57
2023-02-25T20:56:21.926Z,3.77
2023-02-25T20:58:51.792Z,2.67
2023-02-25T21:01:19.934Z,2.57
2023-02-25T21:03:48.216Z,2.47
2023-02-25T21:06:16.166Z,1.30
2023-02-25T21:08:43.902Z,3.53
2023-02-25T21:11:11.539Z,3.87
2023-02-25T21:13:39.336Z,3.70
2023-02-25T21:16:09.482Z,2.20
2023-02-25T21:18:37.142Z,3.93
2023-02-25T21:21:07.576Z,3.30
2023-02-25T21:23:36.023Z,3.30
2023-02-25T21:26:04.872Z,5.80
2023-02-25T21:28:33.332Z,2.97
2023-02-25T21:31:02.789Z,2.87
2023-02-25T21:33:32.810Z,3.07
2023-02-25T21:36:01.656Z,5.43
2023-02-25T21:38:29.982Z,5.33
2023-02-25T21:40:58.447Z,5.47
2023-02-25T21:43:26.199Z,2.80
2023-02-25T21:45:54.798Z,3.63
2023-02-25T21:48:23.592Z,2.70
2023-02-25T21:50:53.093Z,3.87
2023-02-25T21:53:21.732Z,2.53
2023-02-25T21:55:49.456Z,1.87
2023-02-25T21:58:17.205Z,3.53
2023-02-25T22:00:44.878Z,4.27
2023-02-25T22:03:12.683Z,1.50
2023-02-25T22:05:44.571Z,2.53
2023-02-25T22:08:14.541Z,2.90
2023-02-25T22:10:42.285Z,5.83
2023-02-25T22:13:10.019Z,1.80
2023-02-25T22:15:37.780Z,4.93
2023-02-25T22:18:05.662Z,2.40
2023-02-25T22:20:33.329Z,3.33
2023-02-25T22:23:00.993Z,2.67
2023-02-25T22:25:29.998Z,4.47
2023-02-25T22:27:57.661Z,2.57
2023-02-25T22:30:25.365Z,2.40
2023-02-25T22:32:53.051Z,2.67
2023-02-25T22:35:21.249Z,4.17
2023-02-25T22:37:48.907Z,3.27
2023-02-25T22:40:16.709Z,2.03
2023-02-25T22:42:45.745Z,2.30
2023-02-25T22:45:13.426Z,4.50
2023-02-25T22:47:41.108Z,2.97
2023-02-25T22:50:09.539Z,2.17
2023-02-25T22:52:37.269Z,2.50
2023-02-25T22:55:05.471Z,4.27
2023-02-25T22:57:33.176Z,3.23
2023-02-25T23:00:02.203Z,3.37
2023-02-25T23:02:29.881Z,2.60
2023-02-25T23:04:57.512Z,3.37
2023-02-25T23:07:25.185Z,3.90
2023-02-25T23:09:53.105Z,3.67
2023-02-25T23:12:21.428Z,6.50
2023-02-25T23:14:49.193Z,2.97
2023-02-25T23:17:18.596Z,4.80
2023-02-25T23:19:46.355Z,4.83
2023-02-25T23:22:21.284Z,3.90
2023-02-25T23:24:48.929Z,3.17
2023-02-25T23:27:16.601Z,2.70
2023-02-25T23:29:44.295Z,3.47
2023-02-25T23:32:11.983Z,3.80
2023-02-25T23:34:41.068Z,2.67
2023-02-25T23:37:08.721Z,2.40
2023-02-25T23:39:36.578Z,1.10
2023-02-25T23:42:04.753Z,1.90
2023-02-25T23:44:32.384Z,4.27
2023-02-25T23:47:00.096Z,2.83
2023-02-25T23:49:28.171Z,1.93
2023-02-25T23:51:57.207Z,2.73
2023-02-25T23:54:24.903Z,5.40
2023-02-25T23:56:52.618Z,4.23
2023-02-25T23:59:23.017Z,3.37
